createdAt,value
2019-03-22T00:01:29.611Z,19.03
2019-03-22T00:04:01.944Z,18.30
2019-03-22T00:06:34.430Z,22.23
2019-03-22T00:09:08.660Z,19.33
2019-03-22T00:11:40.972Z,19.53
2019-03-22T00:14:13.051Z,18.93
2019-03-22T00:16:45.056Z,19.93
2019-03-22T00:19:17.328Z,18.23
2019-03-22T00:21:49.490Z,17.93
2019-03-22T00:24:21.508Z,18.40
2019-03-22T00:26:53.405Z,20.17
2019-03-22T00:29:25.760Z,18.43
2019-03-22T00:31:57.651Z,20.23
2019-03-22T00:34:30.055Z,17.50
2019-03-22T00:37:02.009Z,18.10
2019-03-22T00:39:34.072Z,17.67
2019-03-22T00:42:06.271Z,16.70
2019-03-22T00:44:38.151Z,17.27
2019-03-22T00:47:10.177Z,15.83
2019-03-22T00:49:42.971Z,18.53
2019-03-22T00:52:14.844Z,19.10
2019-03-22T00:54:47.027Z,23.93
2019-03-22T00:57:28.074Z,18.47
2019-03-22T00:59:52.547Z,20.80
2019-03-22T01:02:24.517Z,19.57
2019-03-22T01:04:56.422Z,17.27
2019-03-22T01:07:28.422Z,21.47
2019-03-22T01:10:00.648Z,21.17
2019-03-22T01:12:33.059Z,17.73
2019-03-22T01:15:06.033Z,18.53
2019-03-22T01:17:38.089Z,18.43
2019-03-22T01:20:10.895Z,18.43
2019-03-22T01:22:43.036Z,24.57
2019-03-22T01:25:15.429Z,20.80
2019-03-22T01:27:47.490Z,18.63
2019-03-22T01:30:19.695Z,19.70
2019-03-22T01:32:52.027Z,16.57
2019-03-22T01:35:24.379Z,17.13
2019-03-22T01:37:56.461Z,21.03
2019-03-22T01:40:28.811Z,17.97
2019-03-22T01:43:01.334Z,24.60
2019-03-22T01:45:33.794Z,21.27
2019-03-22T01:48:05.910Z,19.30
2019-03-22T01:50:38.070Z,21.07
2019-03-22T01:53:10.385Z,18.13
2019-03-22T01:55:42.406Z,18.47
2019-03-22T01:58:14.457Z,16.17
2019-03-22T02:00:46.525Z,17.20
2019-03-22T02:03:18.862Z,17.73
2019-03-22T02:05:51.537Z,18.87
2019-03-22T02:08:23.733Z,22.60
2019-03-22T02:10:55.870Z,21.00
2019-03-22T02:13:28.162Z,22.37
2019-03-22T02:16:00.353Z,18.37
2019-03-22T02:18:32.254Z,17.90
2019-03-22T02:21:04.522Z,19.77
2019-03-22T02:23:36.555Z,20.50
2019-03-22T02:26:08.599Z,17.80
2019-03-22T02:28:40.791Z,19.57
2019-03-22T02:31:12.897Z,16.83
2019-03-22T02:33:45.175Z,19.13
2019-03-22T02:36:17.201Z,19.73
2019-03-22T02:38:49.216Z,22.53
2019-03-22T02:41:21.275Z,25.37
2019-03-22T02:43:54.723Z,22.70
2019-03-22T02:46:27.010Z,25.63
2019-03-22T02:48:59.419Z,25.70
2019-03-22T02:51:31.319Z,22.60
2019-03-22T02:54:03.670Z,25.57
2019-03-22T02:56:35.876Z,19.90
2019-03-22T02:59:07.894Z,18.97
2019-03-22T03:01:39.958Z,17.30
2019-03-22T03:04:11.958Z,21.67
2019-03-22T03:06:43.863Z,20.60
2019-03-22T03:09:15.838Z,21.57
2019-03-22T03:11:47.993Z,17.87
2019-03-22T03:14:20.885Z,18.47
2019-03-22T03:16:52.803Z,18.17
2019-03-22T03:19:24.851Z,17.73
2019-03-22T03:21:56.888Z,18.23
2019-03-22T03:24:28.891Z,18.57
2019-03-22T03:27:00.778Z,17.87
2019-03-22T03:29:32.848Z,16.73
2019-03-22T03:32:04.978Z,18.00
2019-03-22T03:34:37.002Z,19.00
2019-03-22T03:37:09.068Z,18.33
2019-03-22T03:39:41.477Z,17.03
2019-03-22T03:42:13.537Z,18.33
2019-03-22T03:44:46.380Z,17.80
2019-03-22T03:47:18.383Z,22.10
2019-03-22T03:49:50.658Z,29.60
2019-03-22T03:52:22.620Z,19.80
2019-03-22T03:54:54.617Z,18.23
2019-03-22T03:57:26.588Z,17.27
2019-03-22T03:59:59.026Z,16.27
2019-03-22T04:02:31.015Z,21.10
2019-03-22T04:05:02.949Z,17.80
2019-03-22T04:07:35.042Z,17.97
2019-03-22T04:10:07.982Z,22.23
2019-03-22T04:12:39.983Z,22.70
2019-03-22T04:15:12.619Z,18.17
2019-03-22T04:17:44.699Z,17.87
2019-03-22T04:20:17.172Z,23.13
2019-03-22T04:22:56.160Z,18.70
2019-03-22T04:25:28.464Z,20.70
2019-03-22T04:28:00.468Z,20.73
2019-03-22T04:30:32.842Z,21.60
2019-03-22T04:33:06.918Z,16.07
2019-03-22T04:35:38.779Z,22.30
2019-03-22T04:38:10.845Z,19.60
2019-03-22T04:40:42.824Z,25.10
2019-03-22T04:43:15.284Z,18.60
2019-03-22T04:45:48.930Z,21.07
2019-03-22T04:48:31.119Z,19.97
2019-03-22T04:51:05.979Z,20.77
2019-03-22T04:53:47.101Z,20.07
2019-03-22T04:56:24.337Z,19.27
2019-03-22T04:58:58.158Z,15.00
2019-03-22T05:01:31.621Z,15.57
2019-03-22T05:04:05.937Z,17.53
2019-03-22T05:06:39.919Z,20.33
2019-03-22T05:09:15.562Z,18.07
2019-03-22T05:11:49.300Z,18.20
2019-03-22T05:14:24.678Z,19.57
2019-03-22T05:16:58.187Z,28.53
2019-03-22T05:19:35.738Z,21.53
2019-03-22T05:22:11.086Z,18.53
2019-03-22T05:24:47.280Z,18.87
2019-03-22T05:27:21.655Z,21.20
2019-03-22T05:29:57.022Z,22.20
2019-03-22T05:32:29.149Z,23.53
2019-03-22T05:35:01.692Z,28.03
2019-03-22T05:37:33.676Z,21.63
2019-03-22T05:40:06.183Z,15.83
2019-03-22T05:42:38.088Z,18.67
2019-03-22T05:45:10.218Z,19.37
2019-03-22T05:47:42.238Z,23.60
2019-03-22T05:50:14.298Z,21.47
2019-03-22T05:52:46.383Z,20.90
2019-03-22T05:55:18.655Z,22.57
2019-03-22T05:57:50.722Z,19.57
2019-03-22T06:00:22.689Z,16.47
2019-03-22T06:02:54.747Z,19.50
2019-03-22T06:05:26.710Z,17.70
2019-03-22T06:07:58.667Z,19.73
2019-03-22T06:10:30.620Z,22.60
2019-03-22T06:13:02.697Z,38.10
2019-03-22T06:15:34.915Z,23.63
2019-03-22T06:18:07.034Z,18.87
2019-03-22T06:20:38.999Z,22.20
2019-03-22T06:23:10.937Z,23.77
2019-03-22T06:25:42.918Z,24.67
2019-03-22T06:28:15.290Z,19.70
2019-03-22T06:30:47.289Z,18.10
2019-03-22T06:33:19.354Z,17.10
2019-03-22T06:35:51.237Z,16.73
2019-03-22T06:38:23.400Z,18.60
2019-03-22T06:40:55.293Z,14.00
2019-03-22T06:43:27.198Z,15.53
2019-03-22T06:45:59.182Z,16.20
2019-03-22T06:48:31.163Z,13.30
2019-03-22T06:51:03.214Z,13.53
2019-03-22T06:53:35.160Z,12.60
2019-03-22T06:56:07.604Z,11.40
2019-03-22T06:58:39.531Z,14.30
2019-03-22T07:01:11.678Z,15.30
2019-03-22T07:03:43.597Z,16.27
2019-03-22T07:06:15.959Z,12.73
2019-03-22T07:08:48.009Z,12.93
2019-03-22T07:11:19.900Z,13.97
2019-03-22T07:13:51.905Z,10.87
2019-03-22T07:16:24.421Z,11.93
2019-03-22T07:18:57.040Z,15.20
2019-03-22T07:21:29.038Z,14.43
2019-03-22T07:24:01.203Z,10.30
2019-03-22T07:26:33.694Z,11.07
2019-03-22T07:29:05.741Z,10.07
2019-03-22T07:31:37.802Z,8.40
2019-03-22T07:34:10.152Z,8.23
2019-03-22T07:36:42.185Z,9.67
2019-03-22T07:39:14.097Z,12.67
2019-03-22T07:41:46.085Z,8.00
2019-03-22T07:44:18.301Z,8.97
2019-03-22T07:46:50.236Z,10.87
2019-03-22T07:49:22.165Z,9.50
2019-03-22T07:51:54.061Z,7.97
2019-03-22T07:54:26.093Z,9.10
2019-03-22T07:56:58.184Z,14.70
2019-03-22T07:59:30.491Z,9.03
2019-03-22T08:02:02.931Z,10.58
2019-03-22T08:04:35.011Z,7.85
2019-03-22T08:07:07.572Z,9.85
2019-03-22T08:09:39.842Z,8.40
2019-03-22T08:12:12.059Z,15.95
2019-03-22T08:14:44.473Z,12.33
2019-03-22T08:17:16.551Z,12.50
2019-03-22T08:19:48.875Z,14.35
2019-03-22T08:22:21.253Z,11.85
2019-03-22T08:24:53.545Z,10.25
2019-03-22T08:27:25.510Z,6.65
2019-03-22T08:29:58.150Z,7.45
2019-03-22T08:32:30.517Z,7.30
2019-03-22T08:35:02.488Z,8.03
2019-03-22T08:37:34.484Z,6.17
2019-03-22T08:40:07.462Z,8.30
2019-03-22T08:42:39.512Z,7.42
2019-03-22T08:45:11.914Z,8.80
2019-03-22T08:47:44.221Z,8.20
2019-03-22T08:50:16.541Z,8.90
2019-03-22T08:52:48.625Z,9.73
2019-03-22T08:55:20.716Z,8.38
2019-03-22T08:57:52.759Z,10.10
2019-03-22T09:00:24.821Z,7.92
2019-03-22T09:02:57.113Z,10.23
2019-03-22T09:05:29.179Z,8.98
2019-03-22T09:08:01.389Z,8.63
2019-03-22T09:10:33.648Z,8.45
2019-03-22T09:13:05.954Z,8.10
2019-03-22T09:15:42.004Z,8.98
2019-03-22T09:18:12.080Z,8.10
2019-03-22T09:20:44.617Z,9.45
2019-03-22T09:23:16.702Z,25.30
2019-03-22T09:25:49.443Z,9.60
2019-03-22T09:28:21.438Z,11.15
2019-03-22T09:30:53.807Z,8.60
2019-03-22T09:33:26.035Z,8.53
2019-03-22T09:35:58.342Z,11.28
2019-03-22T09:38:30.449Z,10.70
2019-03-22T09:41:02.561Z,9.60
2019-03-22T09:43:34.804Z,11.40
2019-03-22T09:46:06.987Z,10.68
2019-03-22T09:48:39.221Z,9.40
2019-03-22T09:51:11.324Z,8.60
2019-03-22T09:53:43.474Z,9.33
2019-03-22T09:56:15.477Z,9.15
2019-03-22T09:58:47.826Z,8.98
2019-03-22T10:01:23.883Z,11.40
2019-03-22T10:03:53.781Z,8.80
2019-03-22T10:06:25.737Z,8.90
2019-03-22T10:08:57.797Z,9.78
2019-03-22T10:11:29.872Z,8.40
2019-03-22T10:14:01.852Z,9.23
2019-03-22T10:16:34.185Z,12.70
2019-03-22T10:19:06.290Z,10.23
2019-03-22T10:21:38.971Z,14.43
2019-03-22T10:24:11.161Z,6.35
2019-03-22T10:26:43.123Z,10.63
2019-03-22T10:29:15.092Z,13.58
2019-03-22T10:31:47.223Z,8.10
2019-03-22T10:34:19.305Z,5.95
2019-03-22T10:36:53.280Z,5.87
2019-03-22T10:39:25.226Z,7.95
2019-03-22T10:41:57.555Z,10.70
2019-03-22T10:44:29.966Z,7.90
2019-03-22T10:47:01.962Z,10.60
2019-03-22T10:49:33.931Z,6.45
2019-03-22T10:52:06.088Z,7.37
2019-03-22T10:54:38.339Z,7.00
2019-03-22T10:57:10.645Z,5.92
2019-03-22T10:59:42.711Z,9.00
2019-03-22T11:02:14.814Z,9.45
2019-03-22T11:04:47.186Z,5.62
2019-03-22T11:07:19.533Z,20.15
2019-03-22T11:09:51.478Z,8.50
2019-03-22T11:12:23.568Z,7.62
2019-03-22T11:14:56.139Z,10.40
2019-03-22T11:17:28.072Z,8.15
2019-03-22T11:20:00.174Z,5.58
2019-03-22T11:22:32.369Z,6.35
2019-03-22T11:25:05.013Z,6.62
2019-03-22T11:27:37.257Z,6.12
2019-03-22T11:30:12.530Z,6.80
2019-03-22T11:32:44.922Z,5.12
2019-03-22T11:35:17.554Z,5.78
2019-03-22T11:37:49.547Z,7.78
2019-03-22T11:40:22.511Z,5.92
2019-03-22T11:42:54.939Z,5.70
2019-03-22T11:45:27.091Z,8.60
2019-03-22T11:48:00.560Z,7.40
2019-03-22T11:50:32.896Z,6.85
2019-03-22T11:53:05.040Z,5.42
2019-03-22T11:55:37.158Z,6.08
2019-03-22T11:58:09.225Z,7.37
2019-03-22T12:00:41.411Z,4.87
2019-03-22T12:03:13.437Z,6.67
2019-03-22T12:05:45.865Z,4.95
2019-03-22T12:08:18.043Z,6.33
2019-03-22T12:10:50.394Z,18.50
2019-03-22T12:13:22.436Z,4.23
2019-03-22T12:15:54.512Z,6.03
2019-03-22T12:18:26.598Z,5.23
2019-03-22T12:20:58.705Z,4.67
2019-03-22T12:23:30.689Z,6.33
2019-03-22T12:26:02.728Z,6.37
2019-03-22T12:28:34.656Z,8.58
2019-03-22T12:31:07.743Z,6.27
2019-03-22T12:33:39.986Z,8.93
2019-03-22T12:36:12.052Z,4.57
2019-03-22T12:38:44.062Z,6.60
2019-03-22T12:41:16.013Z,4.67
2019-03-22T12:43:47.993Z,7.33
2019-03-22T12:46:20.068Z,5.73
2019-03-22T12:48:52.046Z,6.63
2019-03-22T12:51:24.033Z,6.50
2019-03-22T12:53:56.085Z,6.20
2019-03-22T12:56:28.089Z,8.00
2019-03-22T12:59:00.044Z,5.97
2019-03-22T13:01:32.146Z,7.43
2019-03-22T13:04:04.299Z,7.93
2019-03-22T13:06:36.448Z,7.10
2019-03-22T13:09:10.591Z,6.97
2019-03-22T13:11:42.505Z,8.47
2019-03-22T13:14:14.497Z,10.47
2019-03-22T13:16:46.562Z,8.33
2019-03-22T13:19:18.474Z,11.10
2019-03-22T13:21:50.917Z,7.63
2019-03-22T13:24:23.370Z,9.73
2019-03-22T13:26:55.367Z,10.37
2019-03-22T13:29:27.267Z,10.13
2019-03-22T13:31:59.342Z,7.77
2019-03-22T13:34:31.761Z,11.13
2019-03-22T13:37:03.915Z,12.20
2019-03-22T13:39:36.202Z,7.20
2019-03-22T13:42:08.285Z,8.00
2019-03-22T13:44:40.721Z,7.63
2019-03-22T13:47:12.698Z,6.47
2019-03-22T13:49:45.167Z,7.20
2019-03-22T13:52:17.085Z,8.83
2019-03-22T13:54:49.098Z,10.40
2019-03-22T13:57:21.277Z,9.37
2019-03-22T13:59:53.378Z,10.57
2019-03-22T14:02:25.343Z,7.17
2019-03-22T14:04:57.547Z,12.37
2019-03-22T14:07:29.818Z,8.23
2019-03-22T14:10:01.748Z,9.47
2019-03-22T14:12:37.201Z,8.33
2019-03-22T14:15:08.120Z,9.00
2019-03-22T14:17:40.147Z,7.67
2019-03-22T14:20:12.279Z,9.43
2019-03-22T14:22:44.255Z,7.33
2019-03-22T14:25:16.252Z,7.83
2019-03-22T14:27:48.498Z,9.07
2019-03-22T14:30:20.711Z,6.50
2019-03-22T14:32:52.924Z,7.73
2019-03-22T14:35:25.087Z,8.77
2019-03-22T14:37:57.074Z,9.73
2019-03-22T14:40:29.668Z,8.60
2019-03-22T14:43:01.826Z,8.13
2019-03-22T14:45:34.203Z,8.97
2019-03-22T14:48:06.299Z,7.57
2019-03-22T14:50:38.399Z,10.00
2019-03-22T14:53:10.597Z,8.63
2019-03-22T14:55:42.526Z,6.33
2019-03-22T14:58:14.841Z,8.00
2019-03-22T15:00:47.158Z,7.53
2019-03-22T15:03:26.225Z,7.90
2019-03-22T15:05:58.549Z,6.47
2019-03-22T15:08:33.907Z,7.90
2019-03-22T15:11:06.486Z,7.93
2019-03-22T15:13:47.888Z,6.73
2019-03-22T15:16:48.046Z,7.13
2019-03-22T15:19:54.694Z,7.53
2019-03-22T15:22:57.906Z,9.63
2019-03-22T15:25:41.604Z,6.20
2019-03-22T15:28:31.129Z,6.90
2019-03-22T15:31:22.107Z,12.00
2019-03-22T15:34:05.711Z,6.60
2019-03-22T15:36:58.007Z,8.07
2019-03-22T15:39:45.377Z,6.72
2019-03-22T15:42:17.523Z,5.77
2019-03-22T15:44:49.616Z,11.23
2019-03-22T15:47:21.839Z,8.87
2019-03-22T15:49:53.932Z,8.13
2019-03-22T15:52:26.057Z,7.70
2019-03-22T15:54:58.039Z,7.80
2019-03-22T15:57:30.310Z,6.80
2019-03-22T16:00:02.298Z,8.63
2019-03-22T16:02:34.854Z,7.83
2019-03-22T16:05:08.219Z,7.10
2019-03-22T16:07:40.563Z,7.90
2019-03-22T16:10:13.524Z,7.73
2019-03-22T16:12:45.518Z,20.70
2019-03-22T16:15:17.870Z,6.50
2019-03-22T16:17:50.233Z,7.10
2019-03-22T16:20:22.255Z,7.03
2019-03-22T16:22:54.249Z,6.90
2019-03-22T16:25:26.332Z,4.67
2019-03-22T16:27:58.363Z,6.97
2019-03-22T16:30:30.532Z,6.87
2019-03-22T16:33:02.524Z,7.67
2019-03-22T16:35:34.478Z,6.90
2019-03-22T16:38:06.697Z,5.87
2019-03-22T16:40:38.615Z,5.57
2019-03-22T16:43:10.790Z,4.73
2019-03-22T16:45:44.092Z,4.70
2019-03-22T16:48:16.508Z,4.97
2019-03-22T16:50:48.579Z,3.93
2019-03-22T16:53:20.510Z,7.13
2019-03-22T16:55:52.951Z,19.73
2019-03-22T16:58:25.000Z,6.60
2019-03-22T17:00:57.066Z,4.20
2019-03-22T17:03:29.136Z,5.37
2019-03-22T17:06:01.146Z,7.57
2019-03-22T17:08:33.551Z,9.10
2019-03-22T17:11:05.754Z,4.80
2019-03-22T17:13:38.198Z,6.00
2019-03-22T17:16:10.275Z,4.20
2019-03-22T17:18:42.248Z,4.47
2019-03-22T17:21:14.605Z,6.20
2019-03-22T17:23:46.740Z,9.70
2019-03-22T17:26:18.822Z,10.03
2019-03-22T17:28:50.798Z,7.53
2019-03-22T17:31:22.969Z,6.63
2019-03-22T17:33:54.952Z,6.07
2019-03-22T17:36:26.999Z,5.77
2019-03-22T17:38:58.988Z,7.67
2019-03-22T17:41:30.987Z,8.20
2019-03-22T17:44:02.898Z,6.30
2019-03-22T17:46:35.152Z,8.07
2019-03-22T17:49:07.152Z,7.57
2019-03-22T17:51:39.157Z,10.53
2019-03-22T17:54:11.297Z,8.27
2019-03-22T17:56:43.367Z,7.30
2019-03-22T17:59:15.282Z,9.40
2019-03-22T18:01:47.714Z,6.20
2019-03-22T18:04:24.178Z,6.87
2019-03-22T18:06:55.103Z,6.57
2019-03-22T18:09:27.172Z,6.70
2019-03-22T18:11:59.171Z,6.27
2019-03-22T18:14:31.230Z,9.67
2019-03-22T18:17:03.245Z,4.97
2019-03-22T18:19:35.291Z,5.83
2019-03-22T18:22:07.637Z,8.53
2019-03-22T18:24:39.719Z,10.73
2019-03-22T18:27:11.962Z,30.67
2019-03-22T18:29:43.912Z,7.03
2019-03-22T18:32:16.328Z,7.30
2019-03-22T18:34:48.916Z,5.67
2019-03-22T18:37:21.076Z,9.27
2019-03-22T18:39:53.078Z,5.73
2019-03-22T18:42:25.029Z,5.20
2019-03-22T18:44:56.949Z,5.90
2019-03-22T18:47:29.006Z,7.50
2019-03-22T18:50:01.109Z,7.90
2019-03-22T18:52:33.142Z,5.10
2019-03-22T18:55:05.777Z,9.80
2019-03-22T18:57:37.879Z,8.03
2019-03-22T19:00:10.988Z,6.90
2019-03-22T19:02:43.419Z,5.87
2019-03-22T19:05:16.566Z,5.90
2019-03-22T19:07:48.859Z,6.70
2019-03-22T19:10:21.336Z,8.47
2019-03-22T19:12:53.615Z,11.97
2019-03-22T19:15:25.639Z,12.73
2019-03-22T19:17:57.754Z,10.90
2019-03-22T19:20:30.008Z,10.83
2019-03-22T19:23:02.025Z,11.00
2019-03-22T19:25:34.127Z,10.40
2019-03-22T19:28:06.509Z,7.93
2019-03-22T19:30:38.577Z,7.73
2019-03-22T19:33:10.493Z,9.57
2019-03-22T19:35:42.713Z,8.77
2019-03-22T19:38:15.469Z,8.80
2019-03-22T19:40:47.478Z,7.13
2019-03-22T19:43:19.849Z,10.90
2019-03-22T19:46:10.917Z,10.40
2019-03-22T19:48:43.289Z,7.53
2019-03-22T19:51:15.383Z,12.23
2019-03-22T19:53:47.371Z,15.03
2019-03-22T19:56:19.308Z,14.00
2019-03-22T19:58:51.566Z,14.70
2019-03-22T20:01:23.799Z,18.43
2019-03-22T20:03:55.979Z,16.30
2019-03-22T20:06:28.466Z,19.27
2019-03-22T20:09:00.480Z,16.87
2019-03-22T20:11:32.640Z,17.17
2019-03-22T20:14:04.776Z,18.83
2019-03-22T20:16:36.765Z,15.57
2019-03-22T20:19:09.428Z,11.43
2019-03-22T20:21:41.592Z,8.87
2019-03-22T20:24:14.058Z,11.13
2019-03-22T20:26:46.112Z,15.17
2019-03-22T20:29:18.049Z,11.57
2019-03-22T20:31:50.091Z,11.10
2019-03-22T20:34:22.478Z,11.70
2019-03-22T20:36:54.382Z,16.00
2019-03-22T20:39:26.477Z,11.83
2019-03-22T20:41:58.445Z,14.70
2019-03-22T20:44:34.236Z,11.50
2019-03-22T20:47:23.227Z,12.07
2019-03-22T20:49:55.544Z,10.70
2019-03-22T20:52:27.784Z,11.50
2019-03-22T20:55:00.040Z,9.63
2019-03-22T20:57:32.534Z,7.67
2019-03-22T21:00:05.146Z,6.50
2019-03-22T21:02:37.358Z,9.67
2019-03-22T21:05:10.064Z,9.93
2019-03-22T21:07:42.244Z,6.80
2019-03-22T21:10:14.878Z,9.50
2019-03-22T21:12:46.946Z,9.70
2019-03-22T21:15:24.294Z,8.53
2019-03-22T21:17:53.317Z,9.90
2019-03-22T21:20:25.439Z,7.63
2019-03-22T21:22:57.541Z,7.23
2019-03-22T21:25:30.015Z,6.73
2019-03-22T21:28:03.920Z,9.13
2019-03-22T21:30:36.240Z,7.33
2019-03-22T21:33:08.320Z,8.07
2019-03-22T21:35:40.371Z,9.70
2019-03-22T21:38:12.428Z,9.60
2019-03-22T21:40:44.747Z,7.37
2019-03-22T21:43:16.864Z,9.10
2019-03-22T21:45:48.955Z,6.97
2019-03-22T21:48:21.046Z,9.47
2019-03-22T21:50:54.000Z,8.40
2019-03-22T21:53:26.323Z,8.97
2019-03-22T21:55:58.620Z,8.57
2019-03-22T21:58:30.742Z,11.67
2019-03-22T22:01:02.910Z,9.73
2019-03-22T22:03:35.363Z,10.07
2019-03-22T22:06:07.378Z,9.47
2019-03-22T22:08:39.543Z,9.43
2019-03-22T22:11:11.638Z,9.40
2019-03-22T22:13:43.741Z,10.50
2019-03-22T22:16:16.013Z,9.83
2019-03-22T22:18:48.050Z,9.07
2019-03-22T22:21:20.093Z,11.13
2019-03-22T22:23:51.976Z,9.70
2019-03-22T22:26:24.297Z,11.53
2019-03-22T22:28:56.195Z,10.63
2019-03-22T22:31:28.186Z,12.53
2019-03-22T22:34:00.466Z,11.23
2019-03-22T22:36:32.417Z,9.10
2019-03-22T22:39:05.812Z,8.10
2019-03-22T22:41:37.727Z,9.80
2019-03-22T22:44:09.731Z,13.00
2019-03-22T22:46:41.721Z,13.70
2019-03-22T22:49:13.809Z,13.37
2019-03-22T22:51:45.718Z,12.47
2019-03-22T22:54:17.770Z,10.47
2019-03-22T22:56:49.756Z,10.77
2019-03-22T22:59:21.648Z,11.20
2019-03-22T23:01:53.724Z,8.53
2019-03-22T23:04:25.779Z,9.33
2019-03-22T23:06:57.811Z,9.50
2019-03-22T23:09:29.956Z,9.10
2019-03-22T23:12:01.934Z,9.97
2019-03-22T23:14:33.888Z,9.77
2019-03-22T23:17:06.399Z,8.50
2019-03-22T23:19:38.550Z,12.87
2019-03-22T23:22:10.589Z,15.53
2019-03-22T23:24:42.952Z,16.23
2019-03-22T23:27:15.327Z,11.00
2019-03-22T23:29:47.375Z,12.27
2019-03-22T23:32:19.289Z,13.07
2019-03-22T23:34:58.968Z,11.13
2019-03-22T23:37:25.676Z,12.30
2019-03-22T23:39:57.561Z,11.63
2019-03-22T23:42:29.498Z,12.77
2019-03-22T23:45:01.466Z,13.00
2019-03-22T23:47:33.527Z,13.67
2019-03-22T23:50:06.202Z,14.33
2019-03-22T23:52:39.517Z,13.57
2019-03-22T23:55:12.367Z,22.17
2019-03-22T23:57:44.269Z,22.60
